Time,TemperatureF,DewpointF,PressureIn,WindDirection,WindDirectionDegrees,WindSpeedMPH,WindSpeedGustMPH,Humidity,HourlyPrecipIn,Conditions,Clouds,dailyrainin,SolarRadiationWatts/m^2,SoftwareType,DateUTC
2013-04-20 00:03:00,56.7,54.1,30.17,ENE,74,5.0,5.0,91,0.00,,,0.02,0.0,meteohub,2013-04-20 10:03:00,
2013-04-20 00:08:00,56.5,54.0,30.17,East,86,3.0,6.0,91,0.00,,,0.02,0.0,meteohub,2013-04-20 10:08:00,
2013-04-20 00:13:00,56.3,53.8,30.17,East,88,3.0,6.0,91,0.00,,,0.02,0.0,meteohub,2013-04-20 10:13:00,
2013-04-20 00:18:00,56.1,53.6,30.17,ENE,78,3.0,6.0,91,0.00,,,0.02,0.0,meteohub,2013-04-20 10:18:00,
2013-04-20 00:23:00,56.1,53.6,30.17,ENE,77,3.0,6.0,91,0.00,,,0.02,0.0,meteohub,2013-04-20 10:23:00,
2013-04-20 00:28:00,55.9,53.4,30.16,ESE,109,3.0,6.0,91,0.00,,,0.02,0.0,meteohub,2013-04-20 10:28:00,
2013-04-20 00:33:00,55.8,53.2,30.16,East,84,2.0,5.0,91,0.00,,,0.02,0.0,meteohub,2013-04-20 10:33:00,
2013-04-20 00:38:00,55.6,53.2,30.16,East,84,1.0,6.0,92,0.00,,,0.02,0.0,meteohub,2013-04-20 10:38:00,
2013-04-20 00:43:00,55.6,53.1,30.16,East,94,3.0,6.0,91,0.00,,,0.02,0.0,meteohub,2013-04-20 10:43:00,
2013-04-20 00:48:00,55.6,52.7,30.16,East,79,3.0,6.0,90,0.00,,,0.02,0.0,meteohub,2013-04-20 10:48:00,
2013-04-20 00:53:00,55.6,52.7,30.15,East,92,3.0,6.0,90,0.00,,,0.02,0.0,meteohub,2013-04-20 10:53:00,
2013-04-20 00:58:00,55.8,52.5,30.15,East,86,3.0,6.0,89,0.00,,,0.02,0.0,meteohub,2013-04-20 10:58:00,
2013-04-20 01:03:00,55.6,52.3,30.15,East,86,3.0,7.0,89,0.00,,,0.02,0.0,meteohub,2013-04-20 11:03:00,
2013-04-20 01:08:00,55.6,52.3,30.15,ENE,77,2.0,7.0,89,0.00,,,0.02,0.0,meteohub,2013-04-20 11:08:00,
2013-04-20 01:13:00,55.6,52.3,30.15,East,94,3.0,7.0,89,0.00,,,0.02,0.0,meteohub,2013-04-20 11:13:00,
2013-04-20 01:18:00,55.6,52.3,30.15,East,80,5.0,6.0,89,0.00,,,0.02,0.0,meteohub,2013-04-20 11:18:00,
2013-04-20 01:23:00,55.6,52.3,30.15,East,92,3.0,6.0,89,0.00,,,0.02,0.0,meteohub,2013-04-20 11:23:00,
2013-04-20 01:28:00,55.2,52.3,30.14,East,81,2.0,6.0,90,0.00,,,0.02,0.0,meteohub,2013-04-20 11:28:00,
2013-04-20 01:33:00,54.9,52.0,30.14,East,87,3.0,6.0,90,0.00,,,0.02,0.0,meteohub,2013-04-20 11:33:00,
2013-04-20 01:38:00,54.7,52.2,30.14,East,90,5.0,6.0,91,0.00,,,0.02,0.0,meteohub,2013-04-20 11:38:00,
2013-04-20 01:44:00,54.7,52.2,30.14,East,101,2.0,6.0,91,0.00,,,0.02,0.0,meteohub,2013-04-20 11:44:00,
2013-04-20 01:49:00,54.9,52.3,30.14,ESE,103,3.0,6.0,91,0.00,,,0.02,0.0,meteohub,2013-04-20 11:49:00,
2013-04-20 01:54:00,54.7,52.2,30.14,East,86,5.0,6.0,91,0.00,,,0.02,0.0,meteohub,2013-04-20 11:54:00,
2013-04-20 01:59:00,54.7,52.2,30.14,East,90,3.0,6.0,91,0.00,,,0.02,0.0,meteohub,2013-04-20 11:59:00,
2013-04-20 02:04:00,54.5,52.0,30.14,ESE,103,3.0,6.0,91,0.00,,,0.02,0.0,meteohub,2013-04-20 12:04:00,
2013-04-20 02:09:00,54.5,52.2,30.14,East,91,2.0,6.0,92,0.00,,,0.02,0.0,meteohub,2013-04-20 12:09:00,
2013-04-20 02:14:00,54.7,52.3,30.13,East,94,2.0,5.0,92,0.00,,,0.02,0.0,meteohub,2013-04-20 12:14:00,
2013-04-20 02:19:00,54.9,52.3,30.13,ENE,78,4.0,6.0,91,0.00,,,0.02,0.0,meteohub,2013-04-20 12:19:00,
2013-04-20 02:24:00,54.9,52.3,30.13,East,85,2.0,6.0,91,0.00,,,0.02,0.0,meteohub,2013-04-20 12:24:00,
2013-04-20 02:29:00,55.0,52.2,30.13,East,89,3.0,6.0,90,0.00,,,0.02,0.0,meteohub,2013-04-20 12:29:00,
2013-04-20 02:34:00,54.9,52.0,30.13,East,82,3.0,6.0,90,0.00,,,0.02,0.0,meteohub,2013-04-20 12:34:00,
2013-04-20 02:39:00,54.7,52.2,30.13,East,83,3.0,5.0,91,0.00,,,0.02,0.0,meteohub,2013-04-20 12:39:00,
2013-04-20 02:44:00,54.9,52.3,30.12,East,86,3.0,5.0,91,0.00,,,0.02,0.0,meteohub,2013-04-20 12:44:00,
2013-04-20 02:49:00,55.0,52.2,30.12,East,91,3.0,6.0,90,0.00,,,0.02,0.0,meteohub,2013-04-20 12:49:00,
2013-04-20 02:54:00,54.9,52.0,30.12,East,90,2.0,6.0,90,0.00,,,0.02,0.0,meteohub,2013-04-20 12:54:00,
2013-04-20 02:59:00,54.9,52.0,30.12,ENE,72,4.0,6.0,90,0.00,,,0.02,0.0,meteohub,2013-04-20 12:59:00,
2013-04-20 03:04:00,54.9,52.3,30.12,East,86,2.0,6.0,91,0.00,,,0.02,0.0,meteohub,2013-04-20 13:04:00,
2013-04-20 03:09:00,54.9,52.0,30.12,East,82,3.0,6.0,90,0.00,,,0.02,0.0,meteohub,2013-04-20 13:09:00,
2013-04-20 03:14:00,55.0,52.2,30.12,East,81,5.0,6.0,90,0.00,,,0.02,0.0,meteohub,2013-04-20 13:14:00,
2013-04-20 03:19:00,55.0,52.2,30.11,ENE,78,3.0,7.0,90,0.00,,,0.02,0.0,meteohub,2013-04-20 13:19:00,
2013-04-20 03:24:00,55.0,52.2,30.11,East,83,3.0,7.0,90,0.00,,,0.02,0.0,meteohub,2013-04-20 13:24:00,
2013-04-20 03:29:00,55.0,52.2,30.11,East,98,3.0,6.0,90,0.00,,,0.02,0.0,meteohub,2013-04-20 13:29:00,
2013-04-20 03:34:00,55.0,51.8,30.11,ENE,76,3.0,6.0,89,0.00,,,0.02,0.0,meteohub,2013-04-20 13:34:00,
2013-04-20 03:40:00,55.0,51.8,30.11,East,84,3.0,6.0,89,0.00,,,0.02,0.0,meteohub,2013-04-20 13:40:00,
2013-04-20 03:45:00,55.6,52.3,30.11,ENE,78,3.0,6.0,89,0.00,,,0.02,0.0,meteohub,2013-04-20 13:45:00,
2013-04-20 03:50:00,55.6,52.2,30.11,East,84,3.0,6.0,88,0.00,,,0.02,0.0,meteohub,2013-04-20 13:50:00,
2013-04-20 03:55:00,55.8,52.3,30.11,East,81,5.0,6.0,88,0.00,,,0.02,0.0,meteohub,2013-04-20 13:55:00,
2013-04-20 04:00:00,55.8,52.3,30.11,ENE,78,4.0,6.0,88,0.00,,,0.02,0.0,meteohub,2013-04-20 14:00:00,
2013-04-20 04:05:00,55.8,52.3,30.12,East,88,3.0,7.0,88,0.00,,,0.02,0.0,meteohub,2013-04-20 14:05:00,
2013-04-20 04:10:00,55.6,51.8,30.11,ENE,76,4.0,7.0,87,0.00,,,0.02,0.0,meteohub,2013-04-20 14:10:00,
2013-04-20 04:15:00,55.6,51.8,30.12,East,80,5.0,6.0,87,0.00,,,0.02,0.0,meteohub,2013-04-20 14:15:00,
2013-04-20 04:20:00,55.6,51.8,30.11,East,93,2.0,7.0,87,0.00,,,0.02,0.0,meteohub,2013-04-20 14:20:00,
2013-04-20 04:25:00,55.6,51.8,30.12,ENE,76,3.0,7.0,87,0.00,,,0.02,0.0,meteohub,2013-04-20 14:25:00,
2013-04-20 04:30:00,55.2,51.8,30.11,East,94,2.0,6.0,88,0.00,,,0.02,0.0,meteohub,2013-04-20 14:30:00,
2013-04-20 04:35:00,55.0,51.6,30.11,East,82,2.0,6.0,88,0.00,,,0.02,0.0,meteohub,2013-04-20 14:35:00,
2013-04-20 04:40:00,55.0,51.6,30.12,ENE,75,2.0,7.0,88,0.00,,,0.02,0.0,meteohub,2013-04-20 14:40:00,
2013-04-20 04:45:00,54.9,51.4,30.12,ENE,76,3.0,7.0,88,0.00,,,0.02,0.0,meteohub,2013-04-20 14:45:00,
2013-04-20 04:50:00,54.9,51.4,30.12,East,94,2.0,7.0,88,0.00,,,0.02,0.0,meteohub,2013-04-20 14:50:00,
2013-04-20 04:55:00,54.9,51.4,30.12,ENE,74,4.0,7.0,88,0.00,,,0.02,0.0,meteohub,2013-04-20 14:55:00,
2013-04-20 05:00:00,54.9,51.4,30.12,East,82,3.0,6.0,88,0.00,,,0.02,0.0,meteohub,2013-04-20 15:00:00,
2013-04-20 05:05:00,54.9,51.4,30.12,East,88,5.0,7.0,88,0.00,,,0.02,0.0,meteohub,2013-04-20 15:05:00,
2013-04-20 05:10:00,54.9,51.4,30.12,East,84,3.0,7.0,88,0.00,,,0.02,0.0,meteohub,2013-04-20 15:10:00,
2013-04-20 05:15:00,54.9,51.1,30.13,ENE,70,3.0,7.0,87,0.00,,,0.02,0.0,meteohub,2013-04-20 15:15:00,
2013-04-20 05:20:00,54.7,50.9,30.13,ENE,74,4.0,7.0,87,0.00,,,0.02,0.0,meteohub,2013-04-20 15:20:00,
2013-04-20 05:25:00,54.7,51.3,30.13,ENE,76,2.0,7.0,88,0.00,,,0.02,0.0,meteohub,2013-04-20 15:25:00,
2013-04-20 05:30:00,54.7,51.3,30.13,East,84,3.0,6.0,88,0.00,,,0.02,0.0,meteohub,2013-04-20 15:30:00,
2013-04-20 05:35:00,54.7,51.3,30.13,East,94,1.0,6.0,88,0.00,,,0.02,0.0,meteohub,2013-04-20 15:35:00,
2013-04-20 05:40:00,54.3,50.9,30.14,East,82,2.0,6.0,88,0.00,,,0.02,0.0,meteohub,2013-04-20 15:40:00,
2013-04-20 05:45:00,53.6,50.7,30.14,East,96,2.0,5.0,90,0.00,,,0.02,0.0,meteohub,2013-04-20 15:45:00,
2013-04-20 05:51:00,53.2,50.7,30.14,East,86,2.0,5.0,91,0.00,,,0.02,0.0,meteohub,2013-04-20 15:51:00,
2013-04-20 05:56:00,54.0,51.1,30.14,East,94,3.0,4.0,90,0.00,,,0.02,0.0,meteohub,2013-04-20 15:56:00,
2013-04-20 06:01:00,54.1,50.9,30.14,East,79,3.0,5.0,89,0.00,,,0.02,0.0,meteohub,2013-04-20 16:01:00,
2013-04-20 06:06:00,54.5,51.1,30.14,East,98,3.0,7.0,88,0.00,,,0.02,5.0,meteohub,2013-04-20 16:06:00,
2013-04-20 06:11:00,54.3,50.9,30.14,ENE,76,3.0,7.0,88,0.00,,,0.02,7.0,meteohub,2013-04-20 16:11:00,
2013-04-20 06:16:00,54.7,50.9,30.14,East,81,3.0,7.0,87,0.00,,,0.02,11.0,meteohub,2013-04-20 16:16:00,
2013-04-20 06:21:00,54.7,50.9,30.15,ENE,77,3.0,7.0,87,0.00,,,0.02,14.0,meteohub,2013-04-20 16:21:00,
2013-04-20 06:26:00,54.5,50.7,30.14,East,94,5.0,7.0,87,0.00,,,0.02,16.0,meteohub,2013-04-20 16:26:00,
2013-04-20 06:31:00,54.9,50.7,30.14,East,88,3.0,7.0,86,0.00,,,0.02,18.0,meteohub,2013-04-20 16:31:00,
2013-04-20 06:36:00,55.0,50.9,30.14,East,87,3.0,7.0,86,0.00,,,0.02,21.0,meteohub,2013-04-20 16:36:00,
2013-04-20 06:41:00,54.9,50.7,30.15,East,82,3.0,7.0,86,0.00,,,0.02,23.0,meteohub,2013-04-20 16:41:00,
2013-04-20 06:46:00,55.0,50.9,30.15,East,79,5.0,7.0,86,0.00,,,0.02,25.0,meteohub,2013-04-20 16:46:00,
2013-04-20 06:51:00,55.2,51.1,30.15,East,92,3.0,6.0,86,0.00,,,0.02,26.0,meteohub,2013-04-20 16:51:00,
2013-04-20 06:56:00,55.0,50.9,30.15,ENE,76,4.0,6.0,86,0.00,,,0.02,26.0,meteohub,2013-04-20 16:56:00,
2013-04-20 07:01:00,54.9,51.1,30.15,East,88,2.0,6.0,87,0.00,,,0.02,28.0,meteohub,2013-04-20 17:01:00,
2013-04-20 07:06:00,54.7,51.3,30.14,East,87,2.0,6.0,88,0.00,,,0.02,30.0,meteohub,2013-04-20 17:06:00,
2013-04-20 07:11:00,54.9,51.4,30.14,East,86,2.0,5.0,88,0.00,,,0.02,32.0,meteohub,2013-04-20 17:11:00,
2013-04-20 07:16:00,55.4,52.0,30.14,East,86,3.0,5.0,88,0.00,,,0.02,32.0,meteohub,2013-04-20 17:16:00,
2013-04-20 07:21:00,55.8,52.3,30.15,East,88,3.0,5.0,88,0.00,,,0.02,33.0,meteohub,2013-04-20 17:21:00,
2013-04-20 07:26:00,55.6,52.3,30.15,East,90,1.0,5.0,89,0.00,,,0.02,33.0,meteohub,2013-04-20 17:26:00,
2013-04-20 07:31:00,55.0,52.2,30.14,East,82,1.0,5.0,90,0.00,,,0.02,35.0,meteohub,2013-04-20 17:31:00,
2013-04-20 07:36:00,55.8,52.5,30.15,East,87,2.0,3.0,89,0.00,,,0.02,35.0,meteohub,2013-04-20 17:36:00,
2013-04-20 07:42:00,55.9,52.7,30.15,East,88,2.0,3.0,89,0.00,,,0.02,37.0,meteohub,2013-04-20 17:42:00,
2013-04-20 07:47:00,56.5,53.2,30.15,East,94,1.0,3.0,89,0.00,,,0.02,37.0,meteohub,2013-04-20 17:47:00,
2013-04-20 07:52:00,56.8,54.0,30.15,East,93,1.0,3.0,90,0.00,,,0.02,39.0,meteohub,2013-04-20 17:52:00,
2013-04-20 07:57:00,57.6,54.7,30.15,East,94,0.0,3.0,90,0.00,,,0.02,39.0,meteohub,2013-04-20 17:57:00,
2013-04-20 08:02:00,58.6,55.4,30.15,East,93,0.0,2.0,89,0.00,,,0.02,39.0,meteohub,2013-04-20 18:02:00,
2013-04-20 08:07:00,59.9,56.7,30.15,East,93,0.0,1.0,89,0.00,,,0.02,40.0,meteohub,2013-04-20 18:07:00,
2013-04-20 08:12:00,60.8,57.9,30.15,East,93,0.0,1.0,90,0.00,,,0.02,40.0,meteohub,2013-04-20 18:12:00,
2013-04-20 08:17:00,61.5,58.6,30.15,SSW,196,0.0,1.0,90,0.00,,,0.02,42.0,meteohub,2013-04-20 18:17:00,
2013-04-20 08:22:00,62.6,59.5,30.15,SSW,196,0.0,2.0,90,0.00,,,0.02,42.0,meteohub,2013-04-20 18:22:00,
2013-04-20 08:27:00,63.3,59.7,30.15,SSW,195,0.0,2.0,88,0.00,,,0.02,42.0,meteohub,2013-04-20 18:27:00,
2013-04-20 08:32:00,63.9,59.9,30.15,WSW,240,1.0,1.0,87,0.00,,,0.02,42.0,meteohub,2013-04-20 18:32:00,
2013-04-20 08:37:00,64.6,61.0,30.15,WNW,288,2.0,2.0,88,0.00,,,0.02,44.0,meteohub,2013-04-20 18:37:00,
2013-04-20 08:42:00,64.9,61.9,30.15,WNW,288,1.0,4.0,90,0.00,,,0.02,121.0,meteohub,2013-04-20 18:42:00,
2013-04-20 08:47:00,64.6,61.5,30.15,WSW,254,0.0,4.0,90,0.00,,,0.02,155.0,meteohub,2013-04-20 18:47:00,
2013-04-20 08:52:00,64.6,61.9,30.15,WSW,247,1.0,4.0,91,0.00,,,0.02,183.0,meteohub,2013-04-20 18:52:00,
2013-04-20 08:57:00,64.2,61.2,30.15,WSW,248,0.0,3.0,90,0.00,,,0.02,142.0,meteohub,2013-04-20 18:57:00,
2013-04-20 09:02:00,64.4,62.1,30.15,West,266,0.0,3.0,92,0.00,,,0.02,169.0,meteohub,2013-04-20 19:02:00,
2013-04-20 09:07:00,64.8,62.4,30.15,WSW,243,1.0,3.0,92,0.00,,,0.02,199.0,meteohub,2013-04-20 19:07:00,
2013-04-20 09:12:00,65.5,62.8,30.15,SW,236,2.0,3.0,91,0.00,,,0.02,229.0,meteohub,2013-04-20 19:12:00,
2013-04-20 09:17:00,65.5,62.2,30.16,West,273,0.0,5.0,89,0.00,,,0.02,251.0,meteohub,2013-04-20 19:17:00,
2013-04-20 09:22:00,65.8,62.4,30.16,West,267,1.0,5.0,89,0.00,,,0.02,278.0,meteohub,2013-04-20 19:22:00,
2013-04-20 09:27:00,65.8,61.9,30.16,WSW,239,1.0,5.0,87,0.00,,,0.02,253.0,meteohub,2013-04-20 19:27:00,
2013-04-20 09:32:00,65.5,62.4,30.16,West,267,2.0,4.0,90,0.00,,,0.02,172.0,meteohub,2013-04-20 19:32:00,
2013-04-20 09:37:00,65.1,62.1,30.16,WNW,285,2.0,4.0,90,0.00,,,0.02,195.0,meteohub,2013-04-20 19:37:00,
2013-04-20 09:42:00,64.9,62.2,30.16,West,267,2.0,4.0,91,0.00,,,0.02,339.0,meteohub,2013-04-20 19:42:00,
2013-04-20 09:47:00,65.5,62.4,30.16,WSW,240,0.0,3.0,90,0.00,,,0.02,253.0,meteohub,2013-04-20 19:47:00,
2013-04-20 09:52:00,65.8,62.4,30.15,WNW,290,3.0,4.0,89,0.00,,,0.02,265.0,meteohub,2013-04-20 19:52:00,
2013-04-20 09:57:00,66.0,63.0,30.15,NW,304,0.0,4.0,90,0.00,,,0.02,332.0,meteohub,2013-04-20 19:57:00,
2013-04-20 10:02:00,66.6,63.0,30.15,West,275,3.0,4.0,88,0.00,,,0.02,279.0,meteohub,2013-04-20 20:02:00,
2013-04-20 10:07:00,66.4,62.8,30.15,West,274,2.0,5.0,88,0.00,,,0.02,265.0,meteohub,2013-04-20 20:07:00,
2013-04-20 10:12:00,66.4,62.8,30.15,West,269,2.0,5.0,88,0.00,,,0.02,302.0,meteohub,2013-04-20 20:12:00,
2013-04-20 10:17:00,66.6,63.0,30.15,West,281,1.0,4.0,88,0.00,,,0.02,325.0,meteohub,2013-04-20 20:17:00,
2013-04-20 10:22:00,67.1,63.5,30.16,WSW,253,1.0,5.0,88,0.00,,,0.02,570.0,meteohub,2013-04-20 20:22:00,
2013-04-20 10:27:00,67.5,63.5,30.16,West,279,0.0,5.0,87,0.00,,,0.02,285.0,meteohub,2013-04-20 20:27:00,
2013-04-20 10:32:00,67.3,62.6,30.16,WNW,286,4.0,5.0,85,0.00,,,0.02,241.0,meteohub,2013-04-20 20:32:00,
2013-04-20 10:37:00,67.3,62.6,30.16,WNW,303,0.0,5.0,85,0.00,,,0.02,468.0,meteohub,2013-04-20 20:37:00,
2013-04-20 10:42:00,67.3,62.2,30.16,West,273,2.0,4.0,84,0.00,,,0.02,274.0,meteohub,2013-04-20 20:42:00,
2013-04-20 10:48:00,67.3,62.6,30.16,WSW,240,1.0,6.0,85,0.00,,,0.02,378.0,meteohub,2013-04-20 20:48:00,
2013-04-20 10:53:00,67.1,62.4,30.16,WSW,254,0.0,6.0,85,0.00,,,0.02,315.0,meteohub,2013-04-20 20:53:00,
2013-04-20 10:58:00,66.9,62.6,30.16,West,278,1.0,6.0,86,0.00,,,0.02,251.0,meteohub,2013-04-20 20:58:00,
2013-04-20 11:03:00,66.9,62.6,30.16,WNW,286,4.0,5.0,86,0.00,,,0.02,287.0,meteohub,2013-04-20 21:03:00,
2013-04-20 11:08:00,66.7,62.8,30.15,WNW,294,2.0,5.0,87,0.00,,,0.02,425.0,meteohub,2013-04-20 21:08:00,
2013-04-20 11:13:00,67.5,63.9,30.15,West,276,3.0,5.0,88,0.00,,,0.02,517.0,meteohub,2013-04-20 21:13:00,
2013-04-20 11:18:00,67.3,63.0,30.15,WNW,294,3.0,9.0,86,0.00,,,0.02,279.0,meteohub,2013-04-20 21:18:00,
2013-04-20 11:23:00,66.9,63.0,30.15,SW,232,1.0,9.0,87,0.00,,,0.02,243.0,meteohub,2013-04-20 21:23:00,
2013-04-20 11:28:00,66.7,63.1,30.15,SW,234,1.0,9.0,88,0.00,,,0.02,339.0,meteohub,2013-04-20 21:28:00,
2013-04-20 11:33:00,67.3,63.7,30.15,SSW,212,5.0,6.0,88,0.00,,,0.02,555.0,meteohub,2013-04-20 21:33:00,
2013-04-20 11:38:00,67.1,63.1,30.15,SW,223,2.0,5.0,87,0.00,,,0.02,313.0,meteohub,2013-04-20 21:38:00,
2013-04-20 11:43:00,67.1,63.1,30.15,SW,236,3.0,5.0,87,0.00,,,0.02,287.0,meteohub,2013-04-20 21:43:00,
2013-04-20 11:48:00,67.1,63.1,30.15,WNW,293,4.0,5.0,87,0.00,,,0.02,199.0,meteohub,2013-04-20 21:48:00,
2013-04-20 11:53:00,66.9,62.6,30.15,NW,319,2.0,7.0,86,0.00,,,0.02,239.0,meteohub,2013-04-20 21:53:00,
2013-04-20 11:58:00,66.9,62.6,30.15,West,267,3.0,7.0,86,0.00,,,0.02,327.0,meteohub,2013-04-20 21:58:00,
2013-04-20 12:03:00,66.7,62.4,30.15,West,277,2.0,7.0,86,0.00,,,0.02,241.0,meteohub,2013-04-20 22:03:00,
2013-04-20 12:08:00,66.6,62.2,30.15,WSW,250,3.0,4.0,86,0.00,,,0.02,258.0,meteohub,2013-04-20 22:08:00,
2013-04-20 12:13:00,66.6,62.2,30.15,SW,234,1.0,8.0,86,0.00,,,0.02,346.0,meteohub,2013-04-20 22:13:00,
2013-04-20 12:18:00,66.6,62.2,30.14,NW,316,2.0,8.0,86,0.00,,,0.02,450.0,meteohub,2013-04-20 22:18:00,
2013-04-20 12:24:00,66.7,62.1,30.14,SW,224,0.0,8.0,85,0.00,,,0.02,497.0,meteohub,2013-04-20 22:24:00,
2013-04-20 12:29:00,67.3,63.3,30.14,West,273,5.0,5.0,87,0.00,,,0.02,1475.0,meteohub,2013-04-20 22:29:00,
2013-04-20 12:34:00,67.6,62.2,30.14,West,279,2.0,7.0,83,0.00,,,0.02,404.0,meteohub,2013-04-20 22:34:00,
2013-04-20 12:39:00,67.8,62.4,30.14,WSW,254,1.0,7.0,83,0.00,,,0.02,360.0,meteohub,2013-04-20 22:39:00,
2013-04-20 12:44:00,68.0,62.2,30.13,West,271,0.0,7.0,82,0.00,,,0.02,362.0,meteohub,2013-04-20 22:44:00,
2013-04-20 12:49:00,68.0,62.2,30.13,WSW,248,2.0,4.0,82,0.00,,,0.02,362.0,meteohub,2013-04-20 22:49:00,
2013-04-20 12:54:00,67.5,61.7,30.13,West,281,0.0,3.0,82,0.00,,,0.02,454.0,meteohub,2013-04-20 22:54:00,
2013-04-20 12:59:00,67.3,61.9,30.13,WNW,292,1.0,5.0,83,0.00,,,0.02,459.0,meteohub,2013-04-20 22:59:00,
2013-04-20 13:04:00,67.6,61.9,30.13,NW,310,0.0,5.0,82,0.00,,,0.02,343.0,meteohub,2013-04-20 23:04:00,
2013-04-20 13:09:00,67.5,61.7,30.13,West,281,2.0,6.0,82,0.00,,,0.02,278.0,meteohub,2013-04-20 23:09:00,
2013-04-20 13:14:00,67.3,61.2,30.13,WNW,300,2.0,6.0,81,0.00,,,0.02,334.0,meteohub,2013-04-20 23:14:00,
2013-04-20 13:19:00,67.1,61.3,30.13,WSW,254,1.0,6.0,82,0.00,,,0.02,461.0,meteohub,2013-04-20 23:19:00,
2013-04-20 13:24:00,67.5,62.1,30.12,SSE,159,0.0,6.0,83,0.00,,,0.02,1069.0,meteohub,2013-04-20 23:24:00,
2013-04-20 13:29:00,68.2,62.1,30.12,NW,306,0.0,5.0,81,0.00,,,0.02,462.0,meteohub,2013-04-20 23:29:00,
2013-04-20 13:34:00,68.5,61.7,30.12,WSW,244,2.0,4.0,79,0.00,,,0.02,1269.0,meteohub,2013-04-20 23:34:00,
2013-04-20 13:39:00,69.1,62.6,30.12,WSW,246,2.0,7.0,80,0.00,,,0.02,1179.0,meteohub,2013-04-20 23:39:00,
2013-04-20 13:44:00,69.4,62.2,30.11,WSW,248,2.0,7.0,78,0.00,,,0.02,1109.0,meteohub,2013-04-20 23:44:00,
2013-04-20 13:49:00,69.6,61.7,30.11,SW,227,2.0,7.0,76,0.00,,,0.02,396.0,meteohub,2013-04-20 23:49:00,
2013-04-20 13:54:00,70.2,62.6,30.11,SW,232,5.0,6.0,77,0.00,,,0.02,1218.0,meteohub,2013-04-20 23:54:00,
2013-04-20 13:59:00,70.3,62.4,30.10,WSW,237,4.0,6.0,76,0.00,,,0.02,1246.0,meteohub,2013-04-20 23:59:00,
2013-04-20 14:04:00,70.5,62.2,30.11,WSW,247,4.0,7.0,75,0.00,,,0.00,462.0,meteohub,2013-04-21 00:04:00,
2013-04-20 14:09:00,70.5,62.2,30.10,West,278,1.0,8.0,75,0.00,,,0.00,325.0,meteohub,2013-04-21 00:09:00,
2013-04-20 14:14:00,70.3,61.7,30.11,WSW,238,0.0,8.0,74,0.00,,,0.00,364.0,meteohub,2013-04-21 00:14:00,
2013-04-20 14:19:00,69.8,61.9,30.10,WSW,238,0.0,8.0,76,0.00,,,0.00,420.0,meteohub,2013-04-21 00:19:00,
2013-04-20 14:24:00,69.6,61.7,30.10,West,280,3.0,7.0,76,0.00,,,0.00,417.0,meteohub,2013-04-21 00:24:00,
2013-04-20 14:29:00,69.1,61.2,30.10,NNW,331,1.0,6.0,76,0.00,,,0.00,515.0,meteohub,2013-04-21 00:29:00,
2013-04-20 14:34:00,69.1,61.5,30.10,WNW,301,4.0,7.0,77,0.00,,,0.00,399.0,meteohub,2013-04-21 00:34:00,
2013-04-20 14:40:00,69.1,61.2,30.10,SW,228,1.0,7.0,76,0.00,,,0.00,346.0,meteohub,2013-04-21 00:40:00,
2013-04-20 14:45:00,69.3,61.3,30.10,WNW,294,3.0,7.0,76,0.00,,,0.00,661.0,meteohub,2013-04-21 00:45:00,
2013-04-20 14:50:00,69.4,61.2,30.10,WSW,242,1.0,6.0,75,0.00,,,0.00,332.0,meteohub,2013-04-21 00:50:00,
2013-04-20 14:55:00,69.4,61.2,30.09,West,261,2.0,6.0,75,0.00,,,0.00,297.0,meteohub,2013-04-21 00:55:00,
2013-04-20 15:00:00,69.4,61.5,30.09,West,278,2.0,5.0,76,0.00,,,0.00,318.0,meteohub,2013-04-21 01:00:00,
2013-04-20 15:05:00,69.8,62.2,30.10,WNW,288,0.0,4.0,77,0.00,,,0.00,1092.0,meteohub,2013-04-21 01:05:00,
2013-04-20 15:10:00,70.2,61.5,30.09,SW,216,2.0,7.0,74,0.00,,,0.00,343.0,meteohub,2013-04-21 01:10:00,
2013-04-20 15:15:00,70.3,62.4,30.09,West,276,4.0,7.0,76,0.00,,,0.00,343.0,meteohub,2013-04-21 01:15:00,
2013-04-20 15:20:00,70.3,62.4,30.09,West,279,0.0,7.0,76,0.00,,,0.00,1067.0,meteohub,2013-04-21 01:20:00,
2013-04-20 15:25:00,70.3,61.7,30.09,WSW,243,2.0,9.0,74,0.00,,,0.00,394.0,meteohub,2013-04-21 01:25:00,
2013-04-20 15:30:00,70.5,62.6,30.09,West,269,2.0,9.0,76,0.00,,,0.00,1063.0,meteohub,2013-04-21 01:30:00,
2013-04-20 15:35:00,70.9,62.6,30.09,NW,311,4.0,9.0,75,0.00,,,0.00,1025.0,meteohub,2013-04-21 01:35:00,
2013-04-20 15:40:00,71.2,62.6,30.09,SW,225,4.0,9.0,74,0.00,,,0.00,591.0,meteohub,2013-04-21 01:40:00,
2013-04-20 15:45:00,71.1,62.8,30.09,NW,304,4.0,9.0,75,0.00,,,0.00,357.0,meteohub,2013-04-21 01:45:00,
2013-04-20 15:50:00,70.3,62.1,30.09,West,273,2.0,8.0,75,0.00,,,0.00,599.0,meteohub,2013-04-21 01:50:00,
2013-04-20 15:55:00,70.3,62.4,30.09,West,267,1.0,8.0,76,0.00,,,0.00,348.0,meteohub,2013-04-21 01:55:00,
2013-04-20 16:00:00,70.2,62.2,30.09,WNW,287,6.0,8.0,76,0.00,,,0.00,896.0,meteohub,2013-04-21 02:00:00,
2013-04-20 16:05:00,69.6,61.7,30.09,West,263,3.0,8.0,76,0.00,,,0.00,371.0,meteohub,2013-04-21 02:05:00,
2013-04-20 16:10:00,69.4,61.5,30.09,West,274,2.0,8.0,76,0.00,,,0.00,281.0,meteohub,2013-04-21 02:10:00,
2013-04-20 16:15:00,69.4,62.2,30.09,West,281,2.0,7.0,78,0.00,,,0.00,229.0,meteohub,2013-04-21 02:15:00,
2013-04-20 16:20:00,69.1,61.9,30.09,SW,234,3.0,6.0,78,0.00,,,0.00,269.0,meteohub,2013-04-21 02:20:00,
2013-04-20 16:25:00,68.7,62.2,30.09,West,266,1.0,6.0,80,0.00,,,0.00,244.0,meteohub,2013-04-21 02:25:00,
2013-04-20 16:30:00,68.5,62.1,30.09,NW,312,4.0,5.0,80,0.00,,,0.00,142.0,meteohub,2013-04-21 02:30:00,
2013-04-20 16:35:00,68.2,61.7,30.09,West,261,1.0,5.0,80,0.00,,,0.00,142.0,meteohub,2013-04-21 02:35:00,
2013-04-20 16:41:00,67.6,61.5,30.09,WSW,254,0.0,7.0,81,0.00,,,0.00,192.0,meteohub,2013-04-21 02:41:00,
2013-04-20 16:46:00,67.5,61.3,30.09,WSW,255,0.0,7.0,81,0.00,,,0.00,190.0,meteohub,2013-04-21 02:46:00,
2013-04-20 16:51:00,67.3,61.5,30.09,West,261,1.0,7.0,82,0.00,,,0.00,121.0,meteohub,2013-04-21 02:51:00,
2013-04-20 16:56:00,66.9,61.5,30.09,NW,313,4.0,5.0,83,0.00,,,0.00,102.0,meteohub,2013-04-21 02:56:00,
2013-04-20 17:01:00,66.6,61.2,30.09,West,269,0.0,5.0,83,0.00,,,0.00,74.0,meteohub,2013-04-21 03:01:00,
2013-04-20 17:06:00,66.4,61.3,30.09,WNW,284,0.0,5.0,84,0.00,,,0.00,100.0,meteohub,2013-04-21 03:06:00,
2013-04-20 17:11:00,66.4,61.3,30.09,WNW,302,0.0,5.0,84,0.00,,,0.00,142.0,meteohub,2013-04-21 03:11:00,
2013-04-20 17:16:00,66.0,61.0,30.09,West,273,2.0,5.0,84,0.00,,,0.00,181.0,meteohub,2013-04-21 03:16:00,
2013-04-20 17:21:00,66.0,61.3,30.09,WSW,258,2.0,5.0,85,0.00,,,0.00,102.0,meteohub,2013-04-21 03:21:00,
2013-04-20 17:26:00,65.8,60.8,30.09,NW,309,0.0,5.0,84,0.00,,,0.00,70.0,meteohub,2013-04-21 03:26:00,
2013-04-20 17:31:00,65.5,60.8,30.09,WNW,282,0.0,5.0,85,0.00,,,0.00,62.0,meteohub,2013-04-21 03:31:00,
2013-04-20 17:36:00,65.1,60.4,30.09,WNW,294,1.0,5.0,85,0.00,,,0.00,58.0,meteohub,2013-04-21 03:36:00,
2013-04-20 17:41:00,64.8,60.4,30.09,West,271,1.0,5.0,86,0.00,,,0.00,67.0,meteohub,2013-04-21 03:41:00,
2013-04-20 17:46:00,64.8,60.4,30.09,WNW,289,1.0,5.0,86,0.00,,,0.00,49.0,meteohub,2013-04-21 03:46:00,
2013-04-20 17:51:00,64.6,60.6,30.09,NW,324,0.0,5.0,87,0.00,,,0.00,40.0,meteohub,2013-04-21 03:51:00,
2013-04-20 17:56:00,64.6,60.6,30.09,NW,317,0.0,5.0,87,0.00,,,0.00,39.0,meteohub,2013-04-21 03:56:00,
2013-04-20 18:01:00,64.4,60.4,30.09,WNW,298,0.0,5.0,87,0.00,,,0.00,40.0,meteohub,2013-04-21 04:01:00,
2013-04-20 18:06:00,64.2,60.3,30.09,WNW,295,2.0,5.0,87,0.00,,,0.00,42.0,meteohub,2013-04-21 04:06:00,
2013-04-20 18:11:00,64.2,60.6,30.10,WNW,288,1.0,3.0,88,0.00,,,0.00,26.0,meteohub,2013-04-21 04:11:00,
2013-04-20 18:16:00,64.0,60.4,30.10,WNW,292,1.0,3.0,88,0.00,,,0.00,18.0,meteohub,2013-04-21 04:16:00,
2013-04-20 18:21:00,63.9,59.9,30.10,NW,306,0.0,4.0,87,0.00,,,0.00,19.0,meteohub,2013-04-21 04:21:00,
2013-04-20 18:26:00,63.9,60.3,30.10,NW,306,0.0,4.0,88,0.00,,,0.00,16.0,meteohub,2013-04-21 04:26:00,
2013-04-20 18:31:00,63.5,59.9,30.10,West,277,2.0,4.0,88,0.00,,,0.00,14.0,meteohub,2013-04-21 04:31:00,
2013-04-20 18:36:00,63.1,59.9,30.10,West,277,0.0,3.0,89,0.00,,,0.00,5.0,meteohub,2013-04-21 04:36:00,
2013-04-20 18:41:00,62.8,59.5,30.10,West,277,1.0,3.0,89,0.00,,,0.00,0.0,meteohub,2013-04-21 04:41:00,
2013-04-20 18:46:00,62.4,59.4,30.10,West,278,1.0,3.0,90,0.00,,,0.00,0.0,meteohub,2013-04-21 04:46:00,
2013-04-20 18:51:00,62.2,59.2,30.11,West,276,0.0,2.0,90,0.00,,,0.00,0.0,meteohub,2013-04-21 04:51:00,
2013-04-20 18:57:00,62.2,59.5,30.11,West,277,0.0,2.0,91,0.00,,,0.00,0.0,meteohub,2013-04-21 04:57:00,
2013-04-20 19:02:00,62.2,59.9,30.11,West,278,0.0,2.0,92,0.00,,,0.00,0.0,meteohub,2013-04-21 05:02:00,
2013-04-20 19:07:00,62.1,59.7,30.11,West,277,0.0,2.0,92,0.00,,,0.00,0.0,meteohub,2013-04-21 05:07:00,
2013-04-20 19:12:00,62.1,60.1,30.11,West,277,0.0,2.0,93,0.00,,,0.00,0.0,meteohub,2013-04-21 05:12:00,
2013-04-20 19:17:00,61.9,59.9,30.11,West,277,0.0,2.0,93,0.00,,,0.00,0.0,meteohub,2013-04-21 05:17:00,
2013-04-20 19:22:00,61.9,59.9,30.11,West,277,0.0,2.0,93,0.00,,,0.00,0.0,meteohub,2013-04-21 05:22:00,
2013-04-20 19:27:00,61.7,59.7,30.10,West,277,0.0,1.0,93,0.00,,,0.00,0.0,meteohub,2013-04-21 05:27:00,
2013-04-20 19:32:00,61.5,59.2,30.11,West,278,0.0,1.0,92,0.00,,,0.00,0.0,meteohub,2013-04-21 05:32:00,
2013-04-20 19:37:00,61.3,59.0,30.11,West,277,0.0,1.0,92,0.00,,,0.00,0.0,meteohub,2013-04-21 05:37:00,
2013-04-20 19:42:00,61.2,58.5,30.11,West,279,0.0,1.0,91,0.00,,,0.00,0.0,meteohub,2013-04-21 05:42:00,
2013-04-20 19:47:00,60.6,58.3,30.12,West,277,0.0,0.0,92,0.00,,,0.00,0.0,meteohub,2013-04-21 05:47:00,
2013-04-20 19:52:00,60.3,58.3,30.12,West,277,0.0,0.0,93,0.00,,,0.00,0.0,meteohub,2013-04-21 05:52:00,
2013-04-20 19:57:00,60.1,58.3,30.12,West,277,0.0,0.0,94,0.00,,,0.00,0.0,meteohub,2013-04-21 05:57:00,
2013-04-20 20:02:00,59.7,57.9,30.12,West,277,0.0,0.0,94,0.00,,,0.00,0.0,meteohub,2013-04-21 06:02:00,
2013-04-20 20:07:00,59.5,57.6,30.12,West,277,0.0,0.0,93,0.00,,,0.00,0.0,meteohub,2013-04-21 06:07:00,
2013-04-20 20:12:00,59.4,57.0,30.12,SE,128,0.0,1.0,92,0.00,,,0.00,0.0,meteohub,2013-04-21 06:12:00,
2013-04-20 20:17:00,59.2,56.3,30.13,ESE,105,0.0,3.0,90,0.00,,,0.00,0.0,meteohub,2013-04-21 06:17:00,
2013-04-20 20:22:00,58.8,55.6,30.12,East,95,2.0,3.0,89,0.00,,,0.00,0.0,meteohub,2013-04-21 06:22:00,
2013-04-20 20:27:00,58.3,53.4,30.12,ENE,69,2.0,3.0,84,0.00,,,0.00,0.0,meteohub,2013-04-21 06:27:00,
2013-04-20 20:32:00,57.9,53.1,30.12,East,86,0.0,6.0,84,0.00,,,0.00,0.0,meteohub,2013-04-21 06:32:00,
2013-04-20 20:37:00,57.7,53.6,30.13,SE,135,1.0,6.0,86,0.00,,,0.00,0.0,meteohub,2013-04-21 06:37:00,
2013-04-20 20:42:00,57.6,55.2,30.13,SE,134,2.0,6.0,92,0.00,,,0.00,0.0,meteohub,2013-04-21 06:42:00,
2013-04-20 20:47:00,57.4,54.5,30.13,SE,132,0.0,3.0,90,0.00,,,0.00,0.0,meteohub,2013-04-21 06:47:00,
2013-04-20 20:52:00,56.7,53.4,30.13,ENE,78,2.0,3.0,89,0.00,,,0.00,0.0,meteohub,2013-04-21 06:52:00,
2013-04-20 20:57:00,56.3,52.2,30.13,East,84,2.0,4.0,86,0.00,,,0.00,0.0,meteohub,2013-04-21 06:57:00,
2013-04-20 21:02:00,56.7,52.5,30.14,East,90,2.0,4.0,86,0.00,,,0.00,0.0,meteohub,2013-04-21 07:02:00,
2013-04-20 21:07:00,56.7,52.2,30.14,East,96,2.0,5.0,85,0.00,,,0.00,0.0,meteohub,2013-04-21 07:07:00,
2013-04-20 21:12:00,56.7,52.2,30.14,ENE,78,1.0,5.0,85,0.00,,,0.00,0.0,meteohub,2013-04-21 07:12:00,
2013-04-20 21:17:00,56.1,51.6,30.14,East,80,2.0,5.0,85,0.00,,,0.00,0.0,meteohub,2013-04-21 07:17:00,
2013-04-20 21:22:00,55.8,51.6,30.14,East,86,1.0,5.0,86,0.00,,,0.00,0.0,meteohub,2013-04-21 07:22:00,
2013-04-20 21:27:00,55.9,51.8,30.14,ENE,78,2.0,5.0,86,0.00,,,0.00,0.0,meteohub,2013-04-21 07:27:00,
2013-04-20 21:32:00,55.9,51.8,30.14,East,86,3.0,5.0,86,0.00,,,0.00,0.0,meteohub,2013-04-21 07:32:00,
2013-04-20 21:37:00,56.1,51.4,30.14,ENE,71,2.0,5.0,84,0.00,,,0.00,0.0,meteohub,2013-04-21 07:37:00,
2013-04-20 21:42:00,55.9,50.9,30.15,East,88,2.0,5.0,83,0.00,,,0.00,0.0,meteohub,2013-04-21 07:42:00,
2013-04-20 21:47:00,55.8,51.1,30.15,East,96,1.0,5.0,84,0.00,,,0.00,0.0,meteohub,2013-04-21 07:47:00,
2013-04-20 21:52:00,55.6,51.1,30.15,East,100,2.0,5.0,85,0.00,,,0.00,0.0,meteohub,2013-04-21 07:52:00,
2013-04-20 21:57:00,55.6,51.4,30.15,East,85,3.0,5.0,86,0.00,,,0.00,0.0,meteohub,2013-04-21 07:57:00,
2013-04-20 22:02:00,55.6,51.1,30.15,East,80,3.0,5.0,85,0.00,,,0.00,0.0,meteohub,2013-04-21 08:02:00,
2013-04-20 22:07:00,55.2,51.4,30.15,East,94,1.0,5.0,87,0.00,,,0.00,0.0,meteohub,2013-04-21 08:07:00,
2013-04-20 22:12:00,55.0,50.9,30.15,East,93,1.0,5.0,86,0.00,,,0.00,0.0,meteohub,2013-04-21 08:12:00,
2013-04-20 22:17:00,55.0,50.9,30.15,East,80,3.0,5.0,86,0.00,,,0.00,0.0,meteohub,2013-04-21 08:17:00,
2013-04-20 22:22:00,54.9,50.4,30.15,East,90,2.0,5.0,85,0.00,,,0.00,0.0,meteohub,2013-04-21 08:22:00,
2013-04-20 22:27:00,54.3,50.2,30.15,East,101,2.0,4.0,86,0.00,,,0.00,0.0,meteohub,2013-04-21 08:27:00,
2013-04-20 22:32:00,54.1,50.4,30.15,East,96,2.0,3.0,87,0.00,,,0.00,0.0,meteohub,2013-04-21 08:32:00,
2013-04-20 22:37:00,54.1,50.7,30.16,East,89,1.0,4.0,88,0.00,,,0.00,0.0,meteohub,2013-04-21 08:37:00,
2013-04-20 22:42:00,54.1,50.7,30.15,East,82,1.0,4.0,88,0.00,,,0.00,0.0,meteohub,2013-04-21 08:42:00,
2013-04-20 22:47:00,54.1,50.7,30.15,East,84,1.0,4.0,88,0.00,,,0.00,0.0,meteohub,2013-04-21 08:47:00,
2013-04-20 22:53:00,54.1,50.9,30.15,East,80,5.0,5.0,89,0.00,,,0.00,0.0,meteohub,2013-04-21 08:53:00,
2013-04-20 22:58:00,54.1,50.7,30.15,ESE,115,2.0,5.0,88,0.00,,,0.00,0.0,meteohub,2013-04-21 08:58:00,
2013-04-20 23:03:00,54.1,50.7,30.14,East,79,2.0,5.0,88,0.00,,,0.00,0.0,meteohub,2013-04-21 09:03:00,
2013-04-20 23:08:00,53.8,50.4,30.14,ENE,78,3.0,5.0,88,0.00,,,0.00,0.0,meteohub,2013-04-21 09:08:00,
2013-04-20 23:13:00,53.6,49.8,30.14,ENE,78,1.0,5.0,87,0.00,,,0.00,0.0,meteohub,2013-04-21 09:13:00,
2013-04-20 23:18:00,53.8,50.4,30.14,ESE,102,1.0,5.0,88,0.00,,,0.00,0.0,meteohub,2013-04-21 09:18:00,
2013-04-20 23:23:00,53.6,50.2,30.14,East,84,3.0,5.0,88,0.00,,,0.00,0.0,meteohub,2013-04-21 09:23:00,
2013-04-20 23:28:00,53.6,50.2,30.14,East,96,1.0,3.0,88,0.00,,,0.00,0.0,meteohub,2013-04-21 09:28:00,
2013-04-20 23:33:00,53.6,49.5,30.14,East,81,2.0,3.0,86,0.00,,,0.00,0.0,meteohub,2013-04-21 09:33:00,
2013-04-20 23:38:00,53.8,49.5,30.14,East,86,2.0,5.0,85,0.00,,,0.00,0.0,meteohub,2013-04-21 09:38:00,
2013-04-20 23:43:00,54.0,49.6,30.13,East,90,2.0,5.0,85,0.00,,,0.00,0.0,meteohub,2013-04-21 09:43:00,
2013-04-20 23:48:00,53.4,49.3,30.13,ENE,76,2.0,5.0,86,0.00,,,0.00,0.0,meteohub,2013-04-21 09:48:00,
2013-04-20 23:53:00,53.2,49.5,30.13,ENE,74,1.0,4.0,87,0.00,,,0.00,0.0,meteohub,2013-04-21 09:53:00,
2013-04-20 23:58:00,53.1,49.3,30.13,East,80,2.0,5.0,87,0.00,,,0.00,0.0,meteohub,2013-04-21 09:58:00,